NWS Home NWS Lubbock West Texas Mesonet Three hour changes as of 0904 PM, Mon Aug 20, 2018

Latest   N   C   S   Daily Sum   3hrΔ   24hrΔ   Soil Data 
Site Map   24hr Precip   72hr Precip   Google Plot


Station Time of Last Temp Now Temp 3h ago Delta-T Dewpoint Now Dewpoint 3hr ago Delta-Td 3hr Press Change (mB)
Reese Center  09:00 PM 75.4 84.3 -8.8 59 52.8 6.2 0.7
Abernathy  09:00 PM 73.4 83.3 -9.9 62.1 54.9 7.2 0.5
Plainview  09:00 PM 75.6 84.3 -8.7 59.9 53.7 6.2 0.7
Tahoka  09:00 PM 76.9 85.1 -8.2 65.4 57 8.4 0.8
Slaton  09:00 PM 78.9 85.8 -6.9 57.4 54.7 2.7 0.7
Levelland  09:00 PM 74 83.7 -9.6 60.8 55 5.8 0.6
Roaring Springs  09:00 PM 75.7 85.7 -10 58.1 54.8 3.3 0.6
Floydada  09:00 PM 70.2 84.3 -14.1 59.1 53.1 5.9 0.6
Ralls  09:00 PM 75.5 83.8 -8.2 62.8 54.8 7.9 0.5
Brownfield  09:00 PM 77.4 84.7 -7.3 65.1 58 7.1 0.8
Muleshoe  09:00 PM 71 82 -10.9 61.9 56.3 5.6 0.6
Morton  09:00 PM 74.5 82.5 -8 62 55.7 6.3 0.6
O'Donnell  09:00 PM 79.6 85.8 -6.2 59.8 54.3 5.5 0.8
Seagraves  09:00 PM 76.5 83.5 -7 66.3 60.3 6 0.8
Amherst  09:00 PM 73.3 82.3 -8.9 59 54.7 4.3 0.4
Plains  09:00 PM 75.6 83.6 -8 61.1 57.5 3.6 0.8
Lamesa  09:00 PM 80.8 86.9 -6.1 59.8 59.7 0.1 0.6
Hart  09:00 PM 73.7 81.7 -8 60.2 53.9 6.3 0.5
Friona  09:00 PM 69.8 79.9 -10.1 59.4 54.4 5 0.4
Dimmitt  09:00 PM 73.6 81.2 -7.6 59.6 52.8 6.8 0.6
Tulia  09:00 PM 72.5 83.1 -10.6 57 49.5 7.5 0.6
Silverton  09:00 PM 70.5 83.1 -12.6 56 51.4 4.6 0.7
Post  09:00 PM 81 90.9 -10 55.4 53.7 1.7 1
Seminole  09:00 PM 76 83.3 -7.3 64.4 60.5 3.8 0.8
Gail  09:00 PM 81.7 89.5 -7.8 59.5 56.4 3 1.1
White River Lake  09:00 PM 77.9 87.7 -9.8 55.9 55.7 0.3 0.8
Graham  09:00 PM 82.6 89 -6.4 59.2 57.2 2.1 1.1
Sundown  09:00 PM 74 83.4 -9.5 61 57 4 0.7
Anton  09:00 PM 77.4 84.3 -6.9 61 55.9 5.1 0.6
Fluvanna  09:00 PM 81.2 89.4 -8.2 53.5 53.1 0.3 1.1
Spur  09:00 PM 80.2 88.9 -8.7 55.4 51 4.5 0.7
Northwest Lubbock  09:00 PM 78.2 85.1 -6.9 56.3 54.5 1.8 0.6
Guthrie  09:00 PM 81.5 90.8 -9.3 52.8 52.9 -0.1 0.9
Clarendon  09:00 PM 73.7 83.8 -10.2 55.7 48.1 7.6 0.6
Paducah  09:00 PM 78.3 87.7 -9.4 57.5 53.2 4.4 0.8
Snyder  09:00 PM 80.4 91 -10.6 58.9 57 1.9 0.9
Memphis  09:00 PM 75.5 86.9 -11.4 56.4 51.7 4.7 0.9
Jayton  09:00 PM 80.9 91.4 -10.5 55.6 53 2.6 1.2
Pampa  09:00 PM 65.8 79.9 -14.2 53.3 47.6 5.6 0.7
Aspermont  09:00 PM 79.6 92.1 -12.6 57.2 56.3 0.8 1
Hereford  09:00 PM 73.6 82.2 -8.5 54.7 47.8 6.9 0.5
Goodlett  09:00 PM 77.3 88.7 -11.4 55.8 50 5.8 0.9
McLean  09:00 PM 71.2 82.1 -10.9 50.3 48 2.4 0.9
Denver City  09:00 PM 72 81.7 -9.7 63.1 57.5 5.6 0.8
Lake Alan Henry  09:00 PM 83.7 90.8 -7.1 59.8 55.9 3.9 1
Wolfforth  09:00 PM 77.6 84.5 -6.9 60.8 57.3 3.5 0.6
Andrews  09:00 PM 78.5 85.7 -7.3 65.3 58.7 6.6 0.7
Turkey  09:00 PM 78.2 84.6 -6.4 58.5 54.6 3.9 0.6
Childress  09:00 PM 76.7 87.1 -10.4 54.5 50.8 3.7 0.7
Tatum  09:00 PM 74.7 86.2 -11.5 56.8 52.4 4.4 1
Northfield  09:00 PM 78.9 87.1 -8.2 54.9 52.5 2.4 0.6
Dora  09:00 PM 70.4 81.5 -11 59.6 56.5 3.1 0.8
Northwest San Angelo  09:00 PM 86.1 93.7 -7.6 60.7 59.6 1.1 1.3
Saint Lawrence  09:00 PM 83.9 90.4 -6.5 61.4 60.9 0.5 1.1
Haskell  09:00 PM 82.2 89.4 -7.2 55.6 55.5 0.2 0.8
Wall  09:00 PM 84.4 92.1 -7.7 67.7 65.7 2 1.5
Seymour  09:00 PM 78 90.5 -12.5 59.4 56.1 3.3 1
Knox City  09:00 PM 83.7 94.6 -10.9 55.4 54.2 1.2 1.2
Guadalupe Mtns Park  09:00 PM 70.2 78.3 -8 57.1 56.6 0.4 0.8
Caprock Canyons   09:00 PM 74.9 84.9 -10.1 60.1 51.4 8.7 0.7
Odell  09:00 PM 73.9 86.2 -12.2 62.3 55.4 6.9 0.8
Coyanosa  09:00 PM 83.9 94.4 -10.5 58.7 62.6 -3.9 1.1
Big Lake  09:00 PM 84.3 77.4 6.8 64.7 61.8 3 0.3
Junction  09:00 PM 77.6 78.7 -1 72 71.6 0.4 0.9
Hobbs  09:00 PM 78 84.7 -6.7 59.5 55.6 3.9 0.8
Canadian  09:00 PM 66.8 80 -13.2 52.7 51.7 1 0.7
Palo Duro Canyon State Park Rim  09:00 PM 75.8 84.3 -8.5 51.6 47.9 3.6 0.8
Bootleg  09:00 PM 67.7 78.2 -10.4 60.3 55.3 5 0.4
Sterling City  09:00 PM 82.7 91.7 -9 64.2 63.1 1.1 1.1
Mertzon  09:00 PM 82 94 -12.1 64 65.1 -1.2 1.6
Persimmon Gap  09:00 PM 88.6 92.6 -3.9 59.9 59.3 0.7 1.1
Weinert  09:00 PM 82.7 92.4 -9.7 56.8 57 -0.2 1.1
Claude 12 Southwest  09:00 PM 70.3 84.3 -14 52.8 49 3.8 0.8
Amarillo 7 South Southeast  09:00 PM 70.6 82.9 -12.3 49.7 46.7 3 0.6
Umbarger  09:00 PM 76.3 81.8 -5.5 50.1 48.7 1.4 0.6
Lomax  09:00 PM 85.7 90.9 -5.2 61.1 61.6 -0.4 0.9
Amarillo 9 North Northeast  09:00 PM 71 83.1 -12.1 54.8 48.8 6 0.6
Aiken 3 West Southwest  09:00 PM 69.9 83.3 -13.5 62.1 54.6 7.5 0.6
Sweetwater  09:00 PM 78 88.3 -10.3 64.9 62.1 2.8 1
Dozier  09:00 PM 73.1 85 -12 55.1 51.1 3.9 1
Amarillo 15 North Northwest  09:00 PM 73.2 84.9 -11.6 49.9 48.1 1.7 0.7
Menard  09:00 PM 79.7 90.4 -10.7 69.6 70.7 -1.2 1.6
Tarzan  09:00 PM 81.1 88.4 -7.3 66.2 62.9 3.3 0.9
Goodnight  09:00 PM 72.2 82.7 -10.6 55.2 51.9 3.3 0.7
Boys Ranch   09:00 PM 73.4 83.9 -10.5 56.3 49.7 6.6 0.5
Fort McKavett  09:00 PM 75.5 88 -12.4 69.7 61.3 8.4 1.6
Fort Chadbourne  09:00 PM 80 91.1 -11.1 66.1 65 1.1 1.2
Palo Duro Canyon State Park Floor  09:00 PM 78.8 88.3 -9.5 53.8 49.9 3.9 0.9
Fort Lancaster  09:00 PM 80.9 96.2 -15.3 66.1 63.5 2.6 2
Dell City 1N  09:00 PM 81.2 89.3 -8.1 61.1 61.7 -0.6 0.8
Clyde  09:00 PM 81.5 90.1 -8.6 61.8 62.7 -0.8 1.2
Snyder SSW  09:00 PM 82.3 90.9 -8.6 60 59.9 0.1 1
Panhandle  09:00 PM 65.3 82.1 -16.8 53.4 46.5 6.9 0.8
Vigo Park  09:00 PM 71.2 84.8 -13.6 56.4 51.4 4.9 0.7
Welch  09:00 PM 78.1 84.7 -6.6 66.6 63.6 3 0.8
Throckmorton  09:00 PM 82.2 92 -9.8 59.2 58.4 0.8 1.1
Sierra Blanca  09:00 PM 82.2 89.8 -7.6 57.5 55 2.5 1.1
Fort Lewis CO  09:00 PM 71 84.5 -13.5 29.4 27.4 2 0.2
New Home  09:00 PM 78.8 85.2 -6.4 61.3 58.9 2.3 0.8
McCamey  08:55 PM 81.4 89.4 -8 65.6 66.2 -0.6 1.5
Stamford  09:00 PM 81.9 90.4 -8.5 66.7 62.2 4.5 0.8
Crowell  09:00 PM 80.7 89.9 -9.2 58 56.6 1.4 1.1
Stinnett  09:00 PM 68.6 80.6 -12 50.4 46.8 3.6 0.5
Colorado City  09:00 PM 79.5 91.8 -12.3 64.2 60.8 3.3 0.9
Happy  09:00 PM 75.5 82.9 -7.5 55.8 50.5 5.3 0.7
Endee  09:00 PM 71 81.9 -10.9 60.3 53.9 6.4 0.4
JA Ranch  09:00 PM 70.8 84.8 -14.1 59.5 54.2 5.3 0.7
Adrian  09:00 PM 69.9 78.7 -8.7 55 50.3 4.7 0.2
Lesley  09:00 PM 76 87.1 -11.1 64 55.9 8.1 0.7
Earth  09:00 PM 72.6 82.5 -10 60.5 56.3 4.3 0.5
Van Horn  09:00 PM 83.9 90.6 -6.7 60.5 58.3 2.2 1
Rotan  09:00 PM 85 91.4 -6.4 56.8 58 -1.1 1.1
Fritch  09:00 PM 73.6 83.2 -9.6 46.1 46.2 -0.1 0.5
Estelline  09:00 PM 75.9 87.4 -11.5 58.6 55.5 3.1 0.7
Crane  09:00 PM 83.8 94.1 -10.3 63.1 61.8 1.3 1.6
Olton  09:00 PM 75.8 82.6 -6.8 59 52 7 0.5

West Texas Mesonet Home   Site Map/Menu  NWS Lubbock Soil Data  Daily Summary Page  24hr Precip  72hr Precip  Google Plot